EKY weather

Bessemer Airport
Bessemer, Alabama, United States

Public forecast

Using degrees Fahrenheit for public forecast. Weather courtesy of forecast.io.

Closest aviation weather report (METAR) to Bessemer Airport

Closest report is Shelby County Airport, 10.9 nm (20.1 km) SE. Retrieved 2019/12/10 18:38 UTC (0 seconds ago):

KEET 101838Z AUTO 34009G18KT 2SM -RA BR BKN009 OVC014 09/09 A3014 RMK AO2 CIG 005V011 P0004 T00940089

Closest aviation forecast (TAF) to Bessemer Airport

Closest forecast is Shelby County Airport, 10.9 nm (20.1 km) SE. Retrieved 2019/12/10 18:45 UTC (0 seconds ago):

TAF KEET 101743Z 1018/1118 36008KT 6SM -RA BR BKN012 OVC020 TEMPO 1018/1021 35013G18KT 2SM +RA BR OVC012 FM110200 36009G18KT 5SM -SHRA BR OVC025 FM110800 01007KT P6SM BKN025 OVC060 FM111200 02005KT P6SM SCT100